Tracy City, Tennessee
Current Conditions -  °F | °C
As of 8:55 PM on Monday 22 Dec 2014 (Local Time) from KBGF Reporting Station
Overcast Overcast  
Wind Chill: 42°   Ceiling: 1600
Heat Index: 48°   Visibility: 10mi
Dew Point: 46°   Wind: 16mph
Humidity: 93%   Direction: 140°SE
Pressure: 29.79"   Gusts: NA
Location:  35.26°N, 85.74°W
Report Text: KBGF 230255Z AUTO 14014KT 10SM FEW006 BKN016 OVC022 09/08 A2979 RMK
Loading
Personal Weather Stations






























Interactive Weather Map New forecast layout! Learn more

10-Day Weather Forecast

Advertisements
Track Severe Weather on mobile